x

Frying Pan Shoals, Nc Buoy (41013) Weather Station

10:40 - Wed 22nd Feb 2017 All times are EST. -5 hours from GMT.

  • Wind
    16mph, 20mph gusts
  • Sea Temp 69°f
  • Aire Temp 69°f
  • Sea Pressure 1012.9mb
  • Frying Pan Shoals, Nc Buoy
  • Frying Pan Shoals, Nc Buoy

More Historic Weather Station data

Upgrade to MSW Pro to gain access to the past 30 days of data for over 8000 Wavebouys and Weather Stations around the globe.

Join Pro

Comparision Forecast

View Surf forecast
   
mié 02/22 10:40  -   -   -  16 20 mph 1012.9mb 69f 69f
9:40 4.5ft  -  5s 13 16 mph 1013.4mb 69f 69f
8:30  -   -   -  13 16 mph 1013.9mb 69f 69f
7:40  -   -   -  16 18 mph 1013.5mb 69f 69f
6:40 4.5ft  -  5s 13 18 mph 1013mb 69f 69f
5:40 4.5ft  -  5s 13 18 mph 1013mb 69f 69f
3:40  -   -   -  16 20 mph 1012.6mb 69f 69f
2:40 4ft  -  4s 16 22 mph 1013mb 69f 69f
1:40  -   -   -  18 20 mph 1013.8mb 69f 69f
12:40  -   -   -  18 22 mph 1014.6mb 68f 68f
11:40 3.5ft  -  4s 16 22 mph 1015.1mb 68f 69f
9:40 3.5ft  -  5s 16 20 mph 1015.9mb 67f 69f
8:40  -   -   -  13 16 mph 1016.3mb 67f 69f
7:40  -   -   -  13 18 mph 1016.3mb 68f 68f
7:30  -   -   -  16 18 mph 1016.3mb 68f 68f
6:40 3.5ft  -  5s 16 20 mph 1016mb 68f 68f
5:50 3.5ft 7s 5s 9 11 mph 1016mb 69f 67f
5:40 3.5ft  -  5s 11 13 mph 1016.1mb 69f 67f
5:30  -   -   -  13 18 mph 1016.3mb 69f 67f
5:20  -   -   -  16 18 mph 1016.1mb 69f 68f
5:10  -   -   -  13 16 mph 1016.3mb 69f 68f
5:00  -   -   -  13 18 mph 1016.3mb 69f 68f
4:50 3.5ft 8s 5s 13 18 mph 1016.1mb 69f 68f
4:40 3.5ft  -  5s 11 16 mph 1016mb 69f 68f
4:30  -   -   -  11 13 mph 1016.1mb 69f 68f
4:20  -   -   -  11 16 mph 1016mb 69f 68f
4:10  -   -   -  11 13 mph 1016.1mb 69f 68f
4:00  -   -   -  11 13 mph 1016.3mb 69f 69f
3:50 3.5ft 8s 5s 9 11 mph 1016.1mb 69f 69f
3:40 3.5ft  -  5s 9 11 mph 1016.1mb 69f 68f
3:30  -   -   -  11 13 mph 1016.3mb 69f 68f
3:20  -   -   -  11 16 mph 1016.3mb 69f 68f
3:10  -   -   -  13 16 mph 1016.3mb 69f 68f
3:00  -   -   -  13 16 mph 1016.4mb 69f 68f
2:50 3.5ft 8s 4s 13 16 mph 1016.5mb 69f 68f
2:40 3.5ft  -  4s 13 18 mph 1016.5mb 69f 68f
2:30  -   -   -  13 16 mph 1016.5mb 69f 68f
2:20  -   -   -  13 16 mph 1016.6mb 69f 68f
2:10  -   -   -  13 16 mph 1016.8mb 69f 68f
2:00  -   -   -  13 16 mph 1016.8mb 69f 68f
1:50 4ft 5s 4s 13 18 mph 1016.8mb 69f 68f
1:40 4ft  -  4s 16 18 mph 1016.9mb 69f 68f
1:30  -   -   -  16 20 mph 1017mb 69f 68f
1:20  -   -   -  16 18 mph 1017.1mb 69f 68f
1:10  -   -   -  16 20 mph 1017.3mb 69f 68f
1:00  -   -   -  16 20 mph 1017.4mb 69f 68f
12:50 4ft 5s 4s 16 20 mph 1017.4mb 69f 68f
12:40 4ft  -  4s 16 20 mph 1017.5mb 68f 68f
12:30  -   -   -  16 20 mph 1017.5mb 68f 68f
12:20  -   -   -  16 20 mph 1017.6mb 68f 68f
12:10  -   -   -  16 20 mph 1017.6mb - -
12:00  -   -   -  16 20 mph 1017.8mb 68f 68f
mar 02/21 11:50 4ft 4s 4s 16 20 mph 1018mb 68f 68f
11:40  -   -   -  16 20 mph 1018mb 68f 68f
11:30  -   -   -  16 20 mph 1018.1mb 68f 68f
11:20  -   -   -  18 22 mph 1018.3mb 68f 68f
11:10  -   -   -  16 20 mph 1018.5mb 68f 68f
11:00  -   -   -  16 20 mph 1018.5mb 68f 68f
10:50 4ft 7s 4s 16 20 mph 1018.8mb 68f 68f
10:40 4ft  -  4s 16 20 mph 1019mb 68f 68f
10:30  -   -   -  16 20 mph 1018.9mb 68f 68f
10:20  -   -   -  18 22 mph 1019mb 68f 68f
10:10  -   -   -  18 22 mph 1019mb 68f 68f
10:00  -   -   -  18 22 mph 1019mb 68f 68f
9:50 3.5ft 8s 4s 18 22 mph 1019mb 68f 68f
9:40  -   -   -  18 22 mph 1019mb 68f 68f
9:30  -   -   -  18 22 mph 1019mb 68f 68f
9:20  -   -   -  16 20 mph 1019.1mb 68f 68f
9:10  -   -   -  16 20 mph 1019.1mb 68f 68f
9:00  -   -   -  16 22 mph 1019.1mb 68f 68f
8:50 3.5ft 7s 4s 11 16 mph 1019mb 68f 68f
8:40  -   -   -  13 16 mph 1019.4mb 68f 68f
8:30  -   -   -  11 16 mph 1019.5mb 68f 68f
8:20  -   -   -  13 16 mph - 68f 68f
8:10  -   -   -  13 18 mph 1019.8mb 68f 68f
8:00  -   -   -  13 16 mph 1019.5mb 68f 68f
7:50 3.5ft 7s 5s 16 20 mph 1019.4mb 68f 68f
7:40 3.5ft  -  5s 16 20 mph 1019.4mb 68f 68f
7:30  -   -   -  13 18 mph 1019.6mb 68f 68f
7:20  -   -   -  16 18 mph 1019.5mb 68f 68f
7:10  -   -   -  16 18 mph 1019.5mb 68f 68f
7:00  -   -   -  13 18 mph 1019.6mb 68f 68f
6:50 3.5ft 8s 5s 16 18 mph 1019.6mb 68f 68f
6:40 3.5ft  -  5s 13 18 mph 1019.5mb 68f 68f
6:30  -   -   -  16 18 mph 1019.6mb 68f 68f
6:20  -   -   -  16 20 mph 1019.5mb 68f 68f
6:10  -   -   -  16 18 mph 1019.5mb 68f 68f
6:00  -   -   -  13 18 mph 1019.5mb 68f 68f
5:50 3.5ft 8s 5s 13 18 mph 1019.6mb 68f 68f
5:40 3.5ft  -  5s 13 18 mph 1019.6mb 68f 68f
5:30  -   -   -  13 16 mph 1019.9mb 68f 68f
5:20  -   -   -  13 18 mph 1019.9mb 68f 68f
5:10  -   -   -  16 18 mph 1019.5mb - 68f
5:00  -   -   -  13 18 mph 1019.5mb 68f 68f
4:50 4ft 8s 5s 16 18 mph 1019.4mb 68f 68f
4:40  -   -   -  16 18 mph 1019.5mb 68f 67f
4:30  -   -   -  11 18 mph 1019.5mb 68f 66f
4:20  -   -   -  13 20 mph 1019.6mb 68f 65f
4:10  -   -   -  16 18 mph 1019.9mb 68f 64f
4:00  -   -   -  16 20 mph 1019.8mb 68f 64f
3:50 4ft 6s 4s 18 20 mph 1019.6mb 68f 64f
3:40  -   -   -  18 22 mph 1019.5mb 68f 64f
3:30  -   -   -  18 22 mph 1019.8mb 68f 64f
3:20  -   -   -  18 20 mph 1019.8mb 68f 64f
3:10  -   -   -  18 22 mph 1020mb 68f 64f
3:00  -   -   -  18 20 mph 1019.9mb 68f 64f
2:50 4ft 6s 5s 18 22 mph 1019.9mb 68f 64f
2:40 4ft  -  5s 18 22 mph 1020mb 68f 64f
2:30  -   -   -  18 20 mph 1020mb 68f 64f
2:20  -   -   -  18 22 mph 1020mb 68f 63f
2:10  -   -   -  18 20 mph 1020.3mb 68f 63f
2:00  -   -   -  18 22 mph 1020.4mb 68f 63f
1:50 4ft 6s 5s 18 20 mph 1020.5mb 67f 63f
1:40 4ft  -  5s 18 20 mph 1020.6mb 67f 63f
1:30  -   -   -  18 20 mph 1020.8mb 67f 63f
1:20  -   -   -  16 20 mph 1021mb 67f 63f
1:10  -   -   -  16 20 mph 1021.1mb 67f 63f
1:00  -   -   -  16 18 mph 1021.3mb 67f 63f
12:50 4ft 6s 5s 16 20 mph 1021.5mb 67f 63f
12:40 4ft  -  5s 16 20 mph 1021.5mb 67f 62f
12:30  -   -   -  16 20 mph 1021.6mb 67f 62f
12:20  -   -   -  16 18 mph 1022mb 67f 62f
12:10  -   -   -  16 20 mph 1022.1mb 67f 62f
12:00  -   -   -  16 18 mph 1022.5mb 67f 62f
11:50 4ft 6s 4s 16 18 mph 1022.5mb 67f 62f
11:40  -   -   -  16 18 mph 1022.6mb 67f 62f
11:30  -   -   -  16 20 mph 1022.9mb 67f 62f
11:20  -   -   -  16 18 mph 1023mb 67f 62f
11:10  -   -   -  16 18 mph 1023.1mb 67f 62f
11:00  -   -   -  16 18 mph 1023.4mb 67f 62f
10:50 4ft 6s 5s 16 20 mph 1023.4mb 67f 63f
10:40 4ft  -  5s 16 20 mph 1023.4mb 67f 63f
10:30  -   -   -  16 20 mph 1023.4mb 67f 64f
10:20  -   -   -  16 18 mph 1023.3mb 67f 64f
10:10  -   -   -  16 18 mph 1023mb 67f 64f
10:00  -   -   -  16 18 mph 1023mb 67f 64f
9:50 4.5ft 6s 5s 16 18 mph 1023mb 67f 65f
9:40 4.5ft  -  5s 13 18 mph 1023mb 67f 65f
9:30  -   -   -  13 18 mph 1023mb 67f 65f
9:20  -   -   -  13 16 mph 1023mb 67f 65f
9:10  -   -   -  13 18 mph 1023mb 67f 65f
9:00  -   -   -  13 16 mph 1023mb 67f 65f
8:50 4.5ft 6s 5s 13 18 mph 1023.1mb 67f 66f
8:40  -   -   -  13 16 mph 1023.3mb 67f 66f
8:30  -   -   -  13 18 mph 1023.4mb 67f 66f
8:20  -   -   -  13 18 mph 1023.3mb 67f 66f
8:10  -   -   -  13 18 mph 1023.1mb 67f 66f
8:00  -   -   -  13 18 mph 1023mb 67f 66f
7:50 4.5ft 6s 5s 16 18 mph 1023mb 67f 66f
7:40 4.5ft  -  5s 16 18 mph 1023mb 67f 66f
7:30  -   -   -  13 18 mph 1023mb 67f 66f
7:20  -   -   -  16 20 mph 1023mb 67f 66f
7:10  -   -   -  16 18 mph 1023mb 67f 66f
7:00  -   -   -  16 20 mph 1023mb 67f 66f
6:50 4.5ft 6s 5s 16 20 mph 1023mb 67f 66f
6:40 4.5ft  -  5s 16 20 mph 1022.9mb 67f 66f
6:30  -   -   -  18 20 mph 1022.8mb 67f 66f
6:20  -   -   -  18 22 mph 1022.6mb 67f 66f
6:10  -   -   -  16 20 mph 1022.5mb 67f 66f
6:00  -   -   -  16 20 mph 1022.6mb 67f 66f
5:50 4.5ft 6s 5s 16 20 mph 1022.5mb 67f 66f
5:40  -   -   -  18 20 mph 1022.5mb 67f 66f
5:30  -   -   -  16 20 mph 1022.5mb 67f 66f
5:20  -   -   -  18 20 mph 1022.4mb 67f 66f
5:10  -   -   -  18 20 mph 1022.3mb 67f 66f
5:00  -   -   -  18 22 mph 1022mb 67f 66f
4:50 4.5ft 6s 5s 18 22 mph 1022mb 67f 66f
4:40 4.5ft  -  5s 18 22 mph 1022mb 67f 66f
4:30  -   -   -  18 20 mph 1022.1mb - -
4:20  -   -   -  16 20 mph 1022.1mb 67f 66f
4:10  -   -   -  16 20 mph 1022.1mb - 66f
4:00  -   -   -  18 22 mph 1022mb 67f 66f
3:50 4.5ft 6s 5s 18 22 mph 1022mb 67f 66f
3:40  -   -   -  18 22 mph 1022mb 67f 66f
3:30  -   -   -  18 22 mph 1022mb 67f 67f
3:20  -   -   -  18 20 mph 1021.9mb 66f 67f
3:10  -   -   -  18 20 mph 1022mb 66f 67f
3:00  -   -   -  18 22 mph 1022mb 66f 67f
2:50 4ft 5s 5s 18 20 mph 1022mb 66f 67f
2:40 4ft  -  5s 16 20 mph 1022mb 67f 67f
2:30  -   -   -  18 22 mph 1022.1mb 66f 66f
2:20  -   -   -  18 20 mph 1022.1mb 66f 66f
2:10  -   -   -  16 22 mph 1022.4mb 66f 66f
2:00  -   -   -  16 20 mph 1022.4mb 66f 66f
1:50 3.5ft 6s 4s 16 20 mph 1022.5mb 66f 66f
1:40  -   -   -  16 20 mph 1022.4mb 66f 66f
1:30  -   -   -  16 20 mph 1022.4mb 66f 66f
1:20  -   -   -  18 20 mph 1022.4mb 66f 66f
1:10  -   -   -  16 20 mph 1022.4mb 66f 66f
1:00  -   -   -  18 20 mph 1022.4mb 66f 66f
12:50 3.5ft 6s 4s 18 20 mph 1022.3mb 66f 66f
12:40 3.5ft  -  4s 18 20 mph 1022.3mb 66f 66f
12:30  -   -   -  18 20 mph 1022.3mb 66f 66f
12:20  -   -   -  16 20 mph 1022.3mb 66f 66f
12:10  -   -   -  16 20 mph 1022.5mb 66f 66f
12:00  -   -   -  16 20 mph 1022.4mb 66f 66f
lun 02/20 11:50 3.5ft 6s 4s 18 20 mph 1022.1mb 65f 66f
11:40 3.5ft  -  4s 18 20 mph 1022mb 65f 66f
11:30  -   -   -  18 22 mph 1022mb 65f 66f
11:20  -   -   -  18 22 mph 1021.8mb 65f 66f
11:10  -   -   -  18 22 mph 1022mb 65f 66f
11:00  -   -   -  18 20 mph 1022.1mb 65f 66f
10:50 4ft 6s 5s 18 20 mph 1022.3mb 65f 66f
10:40  -   -   -  16 20 mph 1022.4mb 65f 66f
10:30  -   -   -  16 20 mph 1022.4mb 65f 66f
10:20  -   -   -  16 18 mph 1022.4mb 65f 66f
10:10  -   -   -  16 18 mph 1022.3mb 65f 66f
10:00  -   -   -  16 18 mph 1022.4mb 65f 66f
9:50 3.5ft 6s 4s 16 18 mph 1022.4mb 65f 66f
9:40 3.5ft  -  4s 16 18 mph 1022.5mb 65f 66f
9:30  -   -   -  13 18 mph 1022.4mb 65f 66f
9:20  -   -   -  13 18 mph 1022.4mb 65f 66f
9:10  -   -   -  13 18 mph 1022.1mb 65f 66f
9:00  -   -   -  13 16 mph 1022mb 65f 66f
8:50 3.5ft 6s 5s 11 13 mph 1021.9mb 65f 66f
8:40 3.5ft  -  5s 11 13 mph 1021.8mb 65f 65f
8:30  -   -   -  11 13 mph 1021.8mb 65f 65f
8:20  -   -   -  9 11 mph 1021.9mb 65f 66f
8:10  -   -   -  9 11 mph 1021.8mb - 66f
8:00  -   -   -  11 13 mph 1021.8mb 65f 66f
7:50 3.5ft 6s 4s 11 16 mph 1021.9mb 65f 66f
7:40 3.5ft  -  4s 11 16 mph 1021.9mb - 66f
7:30  -   -   -  13 16 mph 1021.9mb 65f 65f
7:20  -   -   -  13 18 mph 1021.9mb 65f 65f
7:10  -   -   -  13 18 mph 1021.8mb 65f 65f
7:00  -   -   -  13 18 mph 1022mb 65f 65f
6:50 3.5ft 5s 4s 13 18 mph 1021.9mb 65f 65f
6:40 3.5ft  -  4s 16 18 mph 1021.8mb 65f 65f
6:30  -   -   -  16 18 mph 1021.9mb 65f 65f
6:20  -   -   -  16 18 mph 1021.8mb 65f 65f
6:10  -   -   -  16 20 mph 1021.8mb 65f 65f
6:00  -   -   -  16 20 mph 1021.6mb 65f 65f
5:50 3ft 5s 4s 16 20 mph 1021.5mb 65f 65f
5:40  -   -   -  16 20 mph 1021.6mb 65f 65f
5:30  -   -   -  16 20 mph 1021.8mb 65f 65f
5:20  -   -   -  16 20 mph 1021.5mb 65f 65f
5:10  -   -   -  18 20 mph 1021.5mb 65f 65f
5:00  -   -   -  18 20 mph 1021.5mb 65f 64f
4:50 2.5ft 4s 4s 18 20 mph 1021.3mb 65f 64f
4:40 2.5ft  -  4s 16 18 mph 1021.4mb 65f 64f
4:30  -   -   -  16 20 mph 1021mb 66f 64f
4:20  -   -   -  16 20 mph 1021mb 66f 64f
4:10  -   -   -  18 20 mph 1020.8mb - 64f
4:00  -   -   -  16 18 mph 1021mb 66f 64f
3:50 2.5ft 5s 4s 16 18 mph 1021.1mb 66f 64f
3:40 2.5ft  -  4s 16 18 mph 1021.1mb 66f 64f
3:30  -   -   -  13 16 mph 1021.1mb 66f 64f
3:20  -   -   -  13 16 mph 1021mb 65f 64f
3:10  -   -   -  13 16 mph 1021.1mb 65f 63f
3:00  -   -   -  13 16 mph 1021mb 65f 63f
2:50 2ft 5s 4s 13 16 mph 1020.9mb 65f 63f
2:40 2ft  -  4s 13 16 mph 1021mb 65f 63f
2:30  -   -   -  11 16 mph 1021mb 65f 63f
2:20  -   -   -  13 16 mph 1021mb 65f 63f
2:10  -   -   -  13 16 mph 1020.9mb 65f 63f
2:00  -   -   -  11 16 mph 1021mb 65f 63f
1:50 2ft 4s 4s 13
mph
1021mb 65f 62f
1:40 2ft  -  4s 13
mph
1021.1mb 65f 62f
1:30  -   -   -  11 13 mph 1021mb 65f 63f
1:20  -   -   -  11 13 mph 1020.9mb 65f 63f
1:10  -   -   -  11 13 mph 1020.9mb 65f 63f
1:00  -   -   -  13 16 mph 1021mb 65f 62f
12:50 2ft 4s 4s 13 16 mph 1021mb 65f 63f
12:40  -   -   -  13 16 mph 1021mb 65f 62f
12:30  -   -   -  13 16 mph 1021mb 65f 62f
12:20  -   -   -  13 16 mph 1021.1mb 65f 62f
12:10  -   -   -  13 16 mph 1021.4mb 65f 62f
12:00  -   -   -  13 16 mph 1021.3mb 65f 62f
11:50 2ft 3s 3s 13 16 mph 1021.8mb 65f 61f
11:40 2ft  -  3s 11 16 mph 1022mb 65f 61f
11:30  -   -   -  11 16 mph 1022mb 65f 61f
11:20  -   -   -  13
mph
1022mb 65f 61f
11:10  -   -   -  13 16 mph 1022mb 65f 61f
11:00  -   -   -  13 16 mph 1021.9mb 65f 60f
10:50 2ft 4s 3s 13 18 mph 1022mb 65f 61f
10:40 2ft  -  3s 13 18 mph 1022mb 65f 60f
10:30  -   -   -  13 18 mph 1022mb 65f 60f
10:20  -   -   -  13 16 mph 1022.1mb 65f 60f
10:10  -   -   -  13 18 mph 1022mb 65f 60f
10:00  -   -   -  13 18 mph 1022mb 65f 60f
9:50 2ft 4s 3s 13 16 mph 1021.9mb 65f 60f
9:40 2ft  -  3s 13 16 mph 1022mb 65f 60f
9:30  -   -   -  11 13 mph 1022mb 65f 60f
9:20  -   -   -  13 16 mph 1022.1mb 65f 60f
9:10  -   -   -  13 18 mph 1022mb 65f 60f
9:00  -   -   -  16 18 mph 1021.8mb 65f 60f
8:50 2ft 4s 3s 16 18 mph 1021.8mb 65f 60f
8:40 2ft  -  3s 16 18 mph 1021.5mb 65f 60f
8:30  -   -   -  16 20 mph 1021.4mb 65f 60f
8:20  -   -   -  18 20 mph 1021.1mb 65f 60f
8:10  -   -   -  18 20 mph 1021.1mb 65f 60f
8:00  -   -   -  18 20 mph 1021mb - -
7:50 2ft 3s 3s 18 22 mph 1021mb 65f 60f
7:40 2ft  -  3s 18 22 mph 1020.9mb 65f 60f
7:30  -   -   -  18 20 mph 1020.6mb 65f 60f
7:20  -   -   -  18 20 mph 1020.8mb 65f 60f
7:10  -   -   -  16 20 mph 1020.5mb 65f 60f
7:00  -   -   -  16 20 mph 1020.3mb 65f 61f
6:50 1.6ft 3s 3s 16 20 mph 1020.1mb 65f 61f
6:40 1.6ft  -  3s 16 18 mph 1020mb 65f 61f
6:30  -   -   -  16 18 mph 1019.9mb 65f 61f
6:20  -   -   -  16 18 mph 1020mb 65f 61f
6:10  -   -   -  16 20 mph 1020mb 65f -
6:00  -   -   -  16 20 mph 1019.9mb 65f 61f
5:50 1.6ft 3s 3s 16 18 mph 1019.8mb 65f 61f
5:40  -   -   -  16 20 mph 1019.8mb 65f 61f
5:30  -   -   -  16 18 mph 1019.8mb 65f 61f
5:20  -   -   -  16 18 mph 1019.8mb 65f 61f
5:10  -   -   -  16 18 mph 1019.6mb 65f 61f
5:00  -   -   -  16 18 mph 1019.5mb 65f 62f
4:50 1.6ft 2s 3s 16 18 mph 1019.4mb 65f 62f
4:40 1.6ft  -  3s 16 18 mph 1019.3mb 65f 62f
4:30  -   -   -  13 18 mph 1019mb 65f 62f
4:20  -   -   -  13 18 mph 1019mb 65f 62f
4:10  -   -   -  13 18 mph 1018.8mb 65f 62f
4:00  -   -   -  11 13 mph 1018.6mb 65f 62f
3:50 1.3ft 6s 3s 11 13 mph 1018.5mb 65f 62f
3:40 1.3ft  -  3s 11 13 mph 1018.5mb 65f 62f
3:30  -   -   -  11 13 mph 1018.4mb 65f 62f
3:20  -   -   -  11 13 mph 1018.4mb 64f 62f
3:10  -   -   -  11 13 mph 1018.4mb 64f 62f
3:00  -   -   -  11 13 mph 1018.3mb 64f 62f
2:50 1.3ft 6s 3s 11 13 mph 1018.1mb 64f 63f
2:40 1.3ft  -  3s 11 13 mph 1018.1mb 64f 63f
2:30  -   -   -  11 13 mph 1018mb 64f 63f
2:20  -   -   -  11 13 mph 1018.1mb 64f 63f
2:10  -   -   -  11 13 mph 1018mb 64f 63f
2:00  -   -   -  11 13 mph 1018mb 64f 63f
1:50 1.6ft 6s 4s 11 13 mph 1017.9mb 64f 63f
1:40 1.6ft  -  4s 11 13 mph - 64f 63f
1:30  -   -   -  11 13 mph 1017.9mb 64f 63f
1:20  -   -   -  11 13 mph 1018mb 64f 64f
1:10  -   -   -  11 13 mph 1018mb 64f 64f
1:00  -   -   -  11 13 mph 1018mb 64f 64f
12:50 1.6ft 5s 4s 9 11 mph 1017.9mb 64f 64f
12:40 1.6ft  -  4s 9 11 mph 1017.9mb 64f 64f
12:30  -   -   -  9 11 mph 1017.8mb 64f 63f
12:20  -   -   -  9 11 mph 1017.8mb 64f 64f
12:10  -   -   -  9 11 mph 1017.9mb 64f 64f
12:00  -   -   -  9 11 mph 1017.8mb 64f 64f
dom 02/19 11:50 1.6ft 6s 4s 9 11 mph 1017.8mb 64f 64f
11:40 1.6ft  -  4s 9 11 mph 1017.8mb 64f 64f
11:30  -   -   -  9 11 mph 1017.9mb 64f 64f
11:20  -   -   -  9
mph
1017.9mb 64f 64f
11:10  -   -   -  9 11 mph 1018mb 64f 64f
11:00  -   -   -  9 11 mph 1018mb 64f 64f
10:50 2ft 5s 4s 9 11 mph 1017.9mb 64f 64f
10:40 2ft  -  4s 9 13 mph 1017.9mb 64f 64f
10:30  -   -   -  9 11 mph 1018mb 64f 64f
10:20  -   -   -  9 13 mph 1018mb 64f 64f
10:10  -   -   -  9 11 mph 1017.9mb 64f 64f
10:00  -   -   -  9 11 mph 1017.8mb 64f 64f
9:50 2ft 6s 4s 9 11 mph 1017.6mb 64f 64f
9:40 2ft  -  4s 9 11 mph 1017.6mb 64f 64f
9:30  -   -   -  9 11 mph 1017.5mb 64f 64f
9:20  -   -   -  9 11 mph 1017.4mb 64f 63f
9:10  -   -   -  9 13 mph 1017.4mb 64f 63f
9:00  -   -   -  11
mph
1017.3mb 64f 63f
8:50 2ft 6s 4s 11 13 mph 1017.1mb 64f 63f
8:40 2ft  -  4s 11 13 mph 1016.9mb 64f 63f
8:30  -   -   -  11 13 mph 1016.8mb 64f 63f
8:20  -   -   -  13 16 mph 1016.8mb 64f 63f
8:10  -   -   -  11 16 mph 1016.6mb 64f 64f
8:00  -   -   -  11 16 mph 1016.5mb 64f 64f
7:50 2.5ft 6s 4s 11 13 mph 1016.4mb 64f 63f
7:40  -   -   -  13 16 mph 1016.3mb 64f 64f
7:30  -   -   -  13 16 mph 1016.3mb 64f 63f
7:20  -   -   -  13 16 mph 1016mb 64f 63f
7:10  -   -   -  13 16 mph 1016mb 64f 63f
7:00  -   -   -  13 16 mph 1015.8mb 64f 63f
6:50 2.5ft 6s 4s 13 16 mph 1015.5mb 64f 63f
6:40  -   -   -  13 16 mph 1015.5mb 64f 63f
6:30  -   -   -  13 16 mph 1015.3mb 64f 63f
6:20  -   -   -  13 16 mph 1015.1mb 64f 63f
6:10  -   -   -  13 16 mph 1015mb 64f 63f
6:00  -   -   -  13 16 mph 1014.9mb 64f 63f
5:50 2.5ft 6s 4s 13 18 mph 1014.6mb 64f 63f
5:40 2.5ft  -  4s 16 18 mph 1014.6mb 64f 64f
5:30  -   -   -  16 18 mph 1014.5mb 64f 64f
5:20  -   -   -  16 18 mph 1014.5mb 64f 64f
5:10  -   -   -  16 18 mph 1014.4mb 64f 64f
5:00  -   -   -  16 18 mph 1014.4mb 64f 64f
4:50 2.5ft 6s 4s 13 18 mph 1014.4mb 64f 64f
4:40  -   -   -  13 16 mph 1014.3mb 64f 64f
4:30  -   -   -  13 16 mph 1014.3mb 64f 63f
4:20  -   -   -  13 18 mph 1014.4mb 64f 63f
4:10  -   -   -  16 18 mph 1014.1mb 64f 63f
4:00  -   -   -  16 18 mph 1014.1mb 64f 62f
3:50 2.5ft 6s 4s 16 18 mph 1014.1mb 64f 62f
3:40 2.5ft  -  4s 16 18 mph 1014mb 64f 62f
3:30  -   -   -  16 18 mph 1014mb 64f 62f
3:20  -   -   -  16 18 mph 1013.9mb 65f 61f
3:10  -   -   -  16 18 mph 1013.9mb 65f 61f
3:00  -   -   -  16 18 mph 1013.9mb 65f 61f
2:50 3ft 6s 4s 16 18 mph 1014mb 65f 61f
2:40 3ft  -  4s 16 18 mph 1014mb 65f 61f
2:30  -   -   -  16 20 mph 1014mb 65f 61f
2:20  -   -   -  16 18 mph 1014mb 65f 61f
2:10  -   -   -  16 18 mph 1014.1mb 65f 61f
2:00  -   -   -  13 16 mph 1014.1mb 65f 60f
1:50 3.5ft 6s 4s 13 16 mph 1014.3mb 65f 60f
1:40 3.5ft  -  4s 13 16 mph 1014mb 65f 60f
1:30  -   -   -  11 13 mph 1014mb 65f 60f
1:20  -   -   -  13 16 mph 1013.9mb 65f 59f
1:10  -   -   -  13 16 mph 1014mb 65f 59f
1:00  -   -   -  13 18 mph 1014mb 65f 59f
12:50 3.5ft 6s 4s 16 18 mph 1014.3mb 65f 59f
12:40  -   -   -  16 20 mph 1014.5mb 65f 58f
12:30  -   -   -  16 20 mph 1014.6mb 65f 59f
12:20  -   -   -  16 20 mph 1015mb 65f 59f
12:10  -   -   -  16 20 mph 1015mb 65f 58f
12:00  -   -   -  18 22 mph 1015mb 65f 58f
11:50 3.5ft 7s 4s 16 20 mph 1015.1mb 65f 58f
11:40 3.5ft  -  4s 18 20 mph 1015.1mb 65f 58f
11:30  -   -   -  18 20 mph 1015.4mb 65f 59f
11:20  -   -   -  16 20 mph 1015.3mb 65f 59f
11:10  -   -   -  18 22 mph 1015.4mb 65f 59f
11:00  -   -   -  18 22 mph 1015.6mb 65f 59f
10:50 3ft 6s 4s 18 22 mph 1015.8mb 65f 59f
10:40 3ft  -  4s 18 22 mph 1015.8mb 65f 59f
10:30  -   -   -  18 25 mph 1015.8mb 64f 59f
10:20  -   -   -  18 25 mph 1015.8mb 64f 59f
10:10  -   -   -  20 22 mph 1015.6mb 64f 59f
10:00  -   -   -  18 22 mph 1015.6mb 64f 60f
9:50 3.5ft 6s 5s 18 25 mph 1015.6mb 64f 60f
9:40  -   -   -  18 22 mph 1015.5mb 64f 60f
9:30  -   -   -  16 22 mph 1015.6mb 64f 60f
9:20  -   -   -  16 20 mph 1015.5mb 64f 59f
9:10  -   -   -  16 18 mph 1015.5mb 64f 60f
9:00  -   -   -  16 18 mph 1015.5mb 64f 60f
8:50 3.5ft 6s 5s 16 18 mph 1015.5mb 64f 60f
8:40 3.5ft  -  5s 16 18 mph 1015.4mb 64f 59f
8:30  -   -   -  16 18 mph 1015.3mb 64f 59f
8:20  -   -   -  16 18 mph 1015.1mb 64f 59f
8:10  -   -   -  13 16 mph 1015mb 64f 59f
8:00  -   -   -  11 16 mph 1014.9mb 64f 59f
7:50 3.5ft 6s 5s 13 18 mph 1014.8mb 64f 59f
7:40 3.5ft  -  5s 13 18 mph 1014.9mb 64f 59f
7:30  -   -   -  13 18 mph 1014.8mb 64f 59f
7:20  -   -   -  16 20 mph 1014.6mb 64f 59f
7:10  -   -   -  13 16 mph 1014.6mb 64f 59f
7:00  -   -   -  16 18 mph 1014.4mb 64f 59f
6:50 2.5ft 6s 4s 13 18 mph 1014.3mb 64f 59f
6:40 2.5ft  -  4s 13 18 mph 1014.1mb - 60f
6:30  -   -   -  13 16 mph 1014.1mb 64f 60f
6:20  -   -   -  13 16 mph 1014.1mb 64f 60f
6:10  -   -   -  11 16 mph 1014mb 64f 60f
6:00  -   -   -  11 13 mph 1013.9mb 64f 60f
5:50 2.5ft 6s 4s 11 13 mph 1014mb 64f 60f
5:40 2.5ft  -  4s 11 13 mph 1013.8mb 64f 60f
5:30  -   -   -  11 13 mph 1013.5mb 64f 60f
5:20  -   -   -  11 13 mph 1013.3mb 64f 60f
5:10  -   -   -  13 18 mph 1013mb 64f 60f
5:00  -   -   -  16 20 mph 1012.8mb 64f 60f